sensor_id;sensor_type;location;lat;lon;timestamp;pressure;altitude;pressure_sealevel;temperature;humidity
73383;BME280;61600;48.126;11.542;2022-11-20T00:02:00;95053.13;;;8.81;64.41
73383;BME280;61600;48.126;11.542;2022-11-20T00:04:25;95054.47;;;8.83;64.66
73383;BME280;61600;48.126;11.542;2022-11-20T00:06:51;95052.56;;;9.08;63.68
73383;BME280;61600;48.126;11.542;2022-11-20T00:09:16;95051.19;;;9.10;63.93
73383;BME280;61600;48.126;11.542;2022-11-20T00:11:42;95055.38;;;8.97;63.73
73383;BME280;61600;48.126;11.542;2022-11-20T00:14:09;95065.94;;;8.99;64.24
73383;BME280;61600;48.126;11.542;2022-11-20T00:16:35;95064.75;;;9.10;63.77
73383;BME280;61600;48.126;11.542;2022-11-20T00:19:01;95060.75;;;9.02;63.73
73383;BME280;61600;48.126;11.542;2022-11-20T00:21:27;95066.34;;;8.87;64.59
73383;BME280;61600;48.126;11.542;2022-11-20T00:23:55;95069.75;;;8.98;64.31
73383;BME280;61600;48.126;11.542;2022-11-20T00:26:23;95063.88;;;8.91;63.93
73383;BME280;61600;48.126;11.542;2022-11-20T00:28:54;95065.72;;;8.72;64.83
73383;BME280;61600;48.126;11.542;2022-11-20T00:31:20;95066.81;;;8.94;64.46
73383;BME280;61600;48.126;11.542;2022-11-20T00:33:46;95072.34;;;9.08;63.62
73383;BME280;61600;48.126;11.542;2022-11-20T00:36:20;95060.53;;;8.99;64.08
73383;BME280;61600;48.126;11.542;2022-11-20T00:38:46;95068.41;;;9.19;63.63
73383;BME280;61600;48.126;11.542;2022-11-20T00:41:14;95073.56;;;9.21;63.24
73383;BME280;61600;48.126;11.542;2022-11-20T00:43:40;95072.56;;;9.12;64.40
73383;BME280;61600;48.126;11.542;2022-11-20T00:46:17;95069.59;;;8.89;64.69
73383;BME280;61600;48.126;11.542;2022-11-20T00:48:44;95084.50;;;8.63;65.04
73383;BME280;61600;48.126;11.542;2022-11-20T00:51:15;95081.59;;;9.07;64.21
73383;BME280;61600;48.126;11.542;2022-11-20T00:53:40;95089.72;;;8.83;64.28
73383;BME280;61600;48.126;11.542;2022-11-20T00:56:09;95082.94;;;8.86;65.01
73383;BME280;61600;48.126;11.542;2022-11-20T00:58:37;95082.97;;;9.04;64.45
73383;BME280;61600;48.126;11.542;2022-11-20T01:01:09;95088.81;;;9.17;63.97
73383;BME280;61600;48.126;11.542;2022-11-20T01:03:38;95084.78;;;9.14;64.10
73383;BME280;61600;48.126;11.542;2022-11-20T01:06:07;95095.84;;;8.94;64.53
73383;BME280;61600;48.126;11.542;2022-11-20T01:08:34;95095.91;;;9.13;64.03
73383;BME280;61600;48.126;11.542;2022-11-20T01:11:06;95099.44;;;9.13;64.63
73383;BME280;61600;48.126;11.542;2022-11-20T01:13:33;95094.69;;;9.00;64.38
73383;BME280;61600;48.126;11.542;2022-11-20T01:16:13;95095.72;;;8.80;64.83
73383;BME280;61600;48.126;11.542;2022-11-20T01:18:41;95108.94;;;8.29;66.46
73383;BME280;61600;48.126;11.542;2022-11-20T01:21:10;95105.59;;;8.37;66.39
73383;BME280;61600;48.126;11.542;2022-11-20T01:23:38;95104.63;;;8.86;65.19
73383;BME280;61600;48.126;11.542;2022-11-20T01:26:07;95105.31;;;8.96;64.66
73383;BME280;61600;48.126;11.542;2022-11-20T01:28:34;95102.19;;;9.08;64.11
73383;BME280;61600;48.126;11.542;2022-11-20T01:31:00;95107.81;;;8.93;64.51
73383;BME280;61600;48.126;11.542;2022-11-20T01:33:27;95099.94;;;9.15;64.02
73383;BME280;61600;48.126;11.542;2022-11-20T01:35:53;95105.44;;;8.86;64.59
73383;BME280;61600;48.126;11.542;2022-11-20T01:38:19;95110.75;;;8.96;64.35
73383;BME280;61600;48.126;11.542;2022-11-20T01:40:55;95111.13;;;9.09;63.83
73383;BME280;61600;48.126;11.542;2022-11-20T01:43:22;95106.28;;;9.06;63.95
73383;BME280;61600;48.126;11.542;2022-11-20T01:51:29;95111.44;;;9.07;63.70
73383;BME280;61600;48.126;11.542;2022-11-20T01:54:00;95103.19;;;8.93;64.30
73383;BME280;61600;48.126;11.542;2022-11-20T01:56:28;95105.47;;;8.81;64.56
73383;BME280;61600;48.126;11.542;2022-11-20T01:58:58;95106.28;;;8.82;64.46
73383;BME280;61600;48.126;11.542;2022-11-20T02:01:26;95104.91;;;8.84;64.44
73383;BME280;61600;48.126;11.542;2022-11-20T02:03:52;95102.19;;;8.84;64.43
73383;BME280;61600;48.126;11.542;2022-11-20T02:06:32;95110.03;;;8.86;64.27
73383;BME280;61600;48.126;11.542;2022-11-20T02:09:00;95112.88;;;8.76;64.50
73383;BME280;61600;48.126;11.542;2022-11-20T02:11:26;95106.91;;;8.97;64.04
73383;BME280;61600;48.126;11.542;2022-11-20T02:13:51;95112.41;;;8.92;64.18
73383;BME280;61600;48.126;11.542;2022-11-20T02:16:25;95103.22;;;8.88;64.21
73383;BME280;61600;48.126;11.542;2022-11-20T02:18:52;95109.56;;;8.79;64.88
73383;BME280;61600;48.126;11.542;2022-11-20T02:24:05;95118.28;;;8.76;64.75
73383;BME280;61600;48.126;11.542;2022-11-20T02:26:35;95107.94;;;8.78;64.31
73383;BME280;61600;48.126;11.542;2022-11-20T02:29:07;95116.59;;;8.80;64.55
73383;BME280;61600;48.126;11.542;2022-11-20T02:31:38;95105.66;;;8.90;64.39
73383;BME280;61600;48.126;11.542;2022-11-20T02:34:05;95110.03;;;8.86;64.33
73383;BME280;61600;48.126;11.542;2022-11-20T02:36:32;95109.00;;;8.82;64.55
73383;BME280;61600;48.126;11.542;2022-11-20T02:38:59;95111.91;;;8.62;64.98
73383;BME280;61600;48.126;11.542;2022-11-20T02:41:36;95111.28;;;8.70;64.85
73383;BME280;61600;48.126;11.542;2022-11-20T02:44:03;95122.19;;;8.31;65.38
73383;BME280;61600;48.126;11.542;2022-11-20T02:46:29;95113.94;;;8.46;65.20
73383;BME280;61600;48.126;11.542;2022-11-20T02:48:56;95112.91;;;8.71;64.90
73383;BME280;61600;48.126;11.542;2022-11-20T02:51:24;95108.56;;;8.70;64.84
73383;BME280;61600;48.126;11.542;2022-11-20T02:53:50;95111.81;;;8.72;64.91
73383;BME280;61600;48.126;11.542;2022-11-20T02:56:16;95111.47;;;8.49;65.40
73383;BME280;61600;48.126;11.542;2022-11-20T02:58:42;95111.16;;;8.80;64.44
73383;BME280;61600;48.126;11.542;2022-11-20T03:01:07;95114.91;;;8.60;64.46
73383;BME280;61600;48.126;11.542;2022-11-20T03:03:33;95115.00;;;8.79;64.33
73383;BME280;61600;48.126;11.542;2022-11-20T03:05:59;95103.72;;;8.67;64.44
73383;BME280;61600;48.126;11.542;2022-11-20T03:08:25;95104.91;;;8.56;65.04
73383;BME280;61600;48.126;11.542;2022-11-20T03:10:52;95100.78;;;8.87;63.92
73383;BME280;61600;48.126;11.542;2022-11-20T03:13:17;95102.41;;;8.88;63.85
73383;BME280;61600;48.126;11.542;2022-11-20T03:15:43;95099.34;;;8.42;65.01
73383;BME280;61600;48.126;11.542;2022-11-20T03:18:09;95099.13;;;8.67;64.33
73383;BME280;61600;48.126;11.542;2022-11-20T03:20:35;95105.22;;;8.54;64.40
73383;BME280;61600;48.126;11.542;2022-11-20T03:23:01;95099.88;;;8.44;64.60
73383;BME280;61600;48.126;11.542;2022-11-20T03:25:27;95094.53;;;8.63;64.14
73383;BME280;61600;48.126;11.542;2022-11-20T03:27:54;95103.72;;;8.67;64.04
73383;BME280;61600;48.126;11.542;2022-11-20T03:30:19;95100.91;;;8.48;63.88
73383;BME280;61600;48.126;11.542;2022-11-20T03:32:45;95099.22;;;8.57;63.83
73383;BME280;61600;48.126;11.542;2022-11-20T03:35:11;95102.31;;;8.69;63.24
73383;BME280;61600;48.126;11.542;2022-11-20T03:37:37;95099.91;;;8.39;64.79
73383;BME280;61600;48.126;11.542;2022-11-20T03:40:03;95104.19;;;8.45;64.11
73383;BME280;61600;48.126;11.542;2022-11-20T03:42:29;95095.47;;;8.53;63.81
73383;BME280;61600;48.126;11.542;2022-11-20T03:45:14;95087.44;;;8.67;63.31
73383;BME280;61600;48.126;11.542;2022-11-20T03:47:40;95102.56;;;8.73;63.33
73383;BME280;61600;48.126;11.542;2022-11-20T03:50:07;95096.06;;;8.74;62.97
73383;BME280;61600;48.126;11.542;2022-11-20T03:52:33;95097.81;;;8.88;62.54
73383;BME280;61600;48.126;11.542;2022-11-20T03:54:58;95104.50;;;8.72;63.00
73383;BME280;61600;48.126;11.542;2022-11-20T03:57:24;95102.97;;;8.61;62.91
73383;BME280;61600;48.126;11.542;2022-11-20T03:59:49;95108.47;;;8.80;62.56
73383;BME280;61600;48.126;11.542;2022-11-20T04:02:15;95108.19;;;8.81;62.75
73383;BME280;61600;48.126;11.542;2022-11-20T04:04:41;95112.06;;;8.75;62.93
73383;BME280;61600;48.126;11.542;2022-11-20T04:07:06;95107.03;;;8.87;62.63
73383;BME280;61600;48.126;11.542;2022-11-20T04:09:32;95115.13;;;8.64;63.05
73383;BME280;61600;48.126;11.542;2022-11-20T04:11:57;95106.72;;;8.65;63.17
73383;BME280;61600;48.126;11.542;2022-11-20T04:14:23;95112.41;;;8.35;63.51
73383;BME280;61600;48.126;11.542;2022-11-20T04:16:49;95112.75;;;8.28;64.74
73383;BME280;61600;48.126;11.542;2022-11-20T04:19:15;95116.31;;;8.52;63.84
73383;BME280;61600;48.126;11.542;2022-11-20T04:21:43;95107.69;;;8.50;63.59
73383;BME280;61600;48.126;11.542;2022-11-20T04:24:09;95107.13;;;8.77;62.63
73383;BME280;61600;48.126;11.542;2022-11-20T04:26:36;95106.81;;;8.55;63.31
73383;BME280;61600;48.126;11.542;2022-11-20T04:29:02;95107.25;;;8.67;62.83
73383;BME280;61600;48.126;11.542;2022-11-20T04:31:30;95105.47;;;8.81;62.58
73383;BME280;61600;48.126;11.542;2022-11-20T04:34:00;95103.56;;;8.58;62.94
73383;BME280;61600;48.126;11.542;2022-11-20T04:36:28;95103.91;;;8.75;62.40
73383;BME280;61600;48.126;11.542;2022-11-20T04:38:59;95114.56;;;8.67;62.52
73383;BME280;61600;48.126;11.542;2022-11-20T04:41:31;95112.41;;;8.69;62.20
73383;BME280;61600;48.126;11.542;2022-11-20T04:43:59;95105.84;;;8.41;63.18
73383;BME280;61600;48.126;11.542;2022-11-20T04:46:30;95113.72;;;8.42;63.30
73383;BME280;61600;48.126;11.542;2022-11-20T04:48:56;95103.31;;;8.55;62.94
73383;BME280;61600;48.126;11.542;2022-11-20T04:51:22;95113.34;;;8.54;63.11
73383;BME280;61600;48.126;11.542;2022-11-20T04:53:48;95112.41;;;8.69;62.78
73383;BME280;61600;48.126;11.542;2022-11-20T04:56:15;95115.72;;;8.61;62.82
73383;BME280;61600;48.126;11.542;2022-11-20T04:58:41;95115.84;;;8.74;62.85
73383;BME280;61600;48.126;11.542;2022-11-20T05:01:13;95109.81;;;8.53;63.24
73383;BME280;61600;48.126;11.542;2022-11-20T05:03:43;95113.84;;;8.85;62.40
73383;BME280;61600;48.126;11.542;2022-11-20T05:06:11;95112.66;;;8.67;62.86
73383;BME280;61600;48.126;11.542;2022-11-20T05:08:38;95110.44;;;8.45;63.32
73383;BME280;61600;48.126;11.542;2022-11-20T05:11:08;95110.91;;;8.52;63.15
73383;BME280;61600;48.126;11.542;2022-11-20T05:13:35;95107.72;;;8.45;63.43
73383;BME280;61600;48.126;11.542;2022-11-20T05:16:09;95106.72;;;8.36;63.63
73383;BME280;61600;48.126;11.542;2022-11-20T05:18:36;95111.91;;;8.33;63.57
73383;BME280;61600;48.126;11.542;2022-11-20T05:21:03;95110.09;;;8.52;63.25
73383;BME280;61600;48.126;11.542;2022-11-20T05:23:30;95110.16;;;8.47;63.27
73383;BME280;61600;48.126;11.542;2022-11-20T05:25:57;95110.69;;;8.73;62.25
73383;BME280;61600;48.126;11.542;2022-11-20T05:28:23;95112.63;;;8.72;62.13
73383;BME280;61600;48.126;11.542;2022-11-20T05:30:49;95116.03;;;8.83;62.20
73383;BME280;61600;48.126;11.542;2022-11-20T05:33:16;95111.63;;;8.63;62.53
73383;BME280;61600;48.126;11.542;2022-11-20T05:35:41;95122.22;;;8.60;62.58
73383;BME280;61600;48.126;11.542;2022-11-20T05:38:07;95108.06;;;8.68;62.36
73383;BME280;61600;48.126;11.542;2022-11-20T05:40:33;95108.78;;;8.49;63.10
73383;BME280;61600;48.126;11.542;2022-11-20T05:42:59;95112.47;;;8.59;62.79
73383;BME280;61600;48.126;11.542;2022-11-20T05:45:25;95125.22;;;8.24;63.66
73383;BME280;61600;48.126;11.542;2022-11-20T05:47:51;95124.78;;;8.75;62.41
73383;BME280;61600;48.126;11.542;2022-11-20T05:50:16;95118.53;;;8.50;62.98
73383;BME280;61600;48.126;11.542;2022-11-20T05:52:42;95116.44;;;8.37;63.56
73383;BME280;61600;48.126;11.542;2022-11-20T05:55:08;95122.84;;;8.51;62.95
73383;BME280;61600;48.126;11.542;2022-11-20T05:57:34;95116.22;;;8.34;63.25
73383;BME280;61600;48.126;11.542;2022-11-20T06:00:00;95121.03;;;8.42;62.88
73383;BME280;61600;48.126;11.542;2022-11-20T06:02:26;95116.91;;;8.49;62.66
73383;BME280;61600;48.126;11.542;2022-11-20T06:04:51;95124.31;;;8.39;62.77
73383;BME280;61600;48.126;11.542;2022-11-20T06:07:17;95116.28;;;8.29;62.81
73383;BME280;61600;48.126;11.542;2022-11-20T06:09:43;95120.53;;;8.35;62.88
73383;BME280;61600;48.126;11.542;2022-11-20T06:12:08;95115.66;;;8.37;62.81
73383;BME280;61600;48.126;11.542;2022-11-20T06:14:34;95121.03;;;8.42;62.32
73383;BME280;61600;48.126;11.542;2022-11-20T06:17:00;95121.56;;;8.05;62.62
73383;BME280;61600;48.126;11.542;2022-11-20T06:19:26;95125.13;;;8.00;62.96
73383;BME280;61600;48.126;11.542;2022-11-20T06:21:52;95120.09;;;7.84;62.84
73383;BME280;61600;48.126;11.542;2022-11-20T06:24:17;95116.44;;;8.03;62.54
73383;BME280;61600;48.126;11.542;2022-11-20T06:26:43;95121.25;;;8.12;62.14
73383;BME280;61600;48.126;11.542;2022-11-20T06:29:09;95122.50;;;7.85;62.84
73383;BME280;61600;48.126;11.542;2022-11-20T06:31:36;95115.69;;;8.32;61.45
73383;BME280;61600;48.126;11.542;2022-11-20T06:34:04;95117.38;;;8.23;61.73
73383;BME280;61600;48.126;11.542;2022-11-20T06:36:32;95123.78;;;8.37;61.41
73383;BME280;61600;48.126;11.542;2022-11-20T06:38:59;95128.59;;;8.06;61.35
73383;BME280;61600;48.126;11.542;2022-11-20T06:41:24;95130.81;;;7.99;61.98
73383;BME280;61600;48.126;11.542;2022-11-20T06:43:51;95136.59;;;7.82;61.62
73383;BME280;61600;48.126;11.542;2022-11-20T06:46:18;95138.00;;;7.80;61.90
73383;BME280;61600;48.126;11.542;2022-11-20T06:48:45;95138.84;;;8.14;60.84
73383;BME280;61600;48.126;11.542;2022-11-20T06:51:12;95131.53;;;8.15;60.14
73383;BME280;61600;48.126;11.542;2022-11-20T06:53:38;95141.22;;;8.21;59.99
73383;BME280;61600;48.126;11.542;2022-11-20T06:56:05;95146.06;;;8.29;59.88
73383;BME280;61600;48.126;11.542;2022-11-20T06:58:32;95153.13;;;8.30;59.97
73383;BME280;61600;48.126;11.542;2022-11-20T07:01:02;95157.88;;;8.43;59.05
73383;BME280;61600;48.126;11.542;2022-11-20T07:03:28;95154.50;;;8.22;59.80
73383;BME280;61600;48.126;11.542;2022-11-20T07:05:57;95157.31;;;8.46;59.36
73383;BME280;61600;48.126;11.542;2022-11-20T07:08:25;95159.25;;;8.40;59.07
73383;BME280;61600;48.126;11.542;2022-11-20T07:10:50;95156.91;;;8.24;59.89
73383;BME280;61600;48.126;11.542;2022-11-20T07:13:16;95156.25;;;8.03;60.45
73383;BME280;61600;48.126;11.542;2022-11-20T07:15:42;95160.22;;;7.77;61.66
73383;BME280;61600;48.126;11.542;2022-11-20T07:18:08;95164.19;;;7.89;61.54
73383;BME280;61600;48.126;11.542;2022-11-20T07:20:33;95172.47;;;7.59;62.95
73383;BME280;61600;48.126;11.542;2022-11-20T07:22:59;95164.88;;;7.66;63.09
73383;BME280;61600;48.126;11.542;2022-11-20T07:25:25;95165.56;;;7.87;62.65
73383;BME280;61600;48.126;11.542;2022-11-20T07:27:51;95171.28;;;7.80;62.86
73383;BME280;61600;48.126;11.542;2022-11-20T07:30:17;95169.66;;;7.84;63.05
73383;BME280;61600;48.126;11.542;2022-11-20T07:32:47;95173.69;;;7.82;63.13
73383;BME280;61600;48.126;11.542;2022-11-20T07:35:12;95167.84;;;7.65;63.88
73383;BME280;61600;48.126;11.542;2022-11-20T07:37:38;95162.31;;;7.85;63.52
73383;BME280;61600;48.126;11.542;2022-11-20T07:40:04;95156.22;;;8.08;62.74
73383;BME280;61600;48.126;11.542;2022-11-20T07:42:30;95160.47;;;7.80;63.34
73383;BME280;61600;48.126;11.542;2022-11-20T07:44:56;95166.44;;;7.77;63.56
73383;BME280;61600;48.126;11.542;2022-11-20T07:47:21;95167.25;;;7.73;63.56
73383;BME280;61600;48.126;11.542;2022-11-20T07:49:47;95159.25;;;8.01;62.68
73383;BME280;61600;48.126;11.542;2022-11-20T07:52:13;95166.63;;;7.91;63.15
73383;BME280;61600;48.126;11.542;2022-11-20T07:54:39;95161.31;;;7.71;63.36
73383;BME280;61600;48.126;11.542;2022-11-20T07:57:04;95161.03;;;7.72;63.42
73383;BME280;61600;48.126;11.542;2022-11-20T07:59:30;95166.06;;;7.94;62.73
73383;BME280;61600;48.126;11.542;2022-11-20T08:01:56;95169.34;;;7.91;62.73
73383;BME280;61600;48.126;11.542;2022-11-20T08:04:22;95169.97;;;8.17;62.13
73383;BME280;61600;48.126;11.542;2022-11-20T08:06:49;95166.22;;;8.13;61.69
73383;BME280;61600;48.126;11.542;2022-11-20T08:09:14;95167.44;;;8.30;61.17
73383;BME280;61600;48.126;11.542;2022-11-20T08:11:40;95179.97;;;8.21;61.31
73383;BME280;61600;48.126;11.542;2022-11-20T08:14:25;95165.00;;;8.68;60.21
73383;BME280;61600;48.126;11.542;2022-11-20T08:16:53;95179.63;;;8.33;60.91
73383;BME280;61600;48.126;11.542;2022-11-20T08:19:20;95176.03;;;8.42;60.87
73383;BME280;61600;48.126;11.542;2022-11-20T08:21:46;95175.22;;;8.42;60.79
73383;BME280;61600;48.126;11.542;2022-11-20T08:24:12;95173.63;;;8.70;59.70
73383;BME280;61600;48.126;11.542;2022-11-20T08:26:39;95176.31;;;8.75;59.67
73383;BME280;61600;48.126;11.542;2022-11-20T08:29:05;95182.50;;;8.46;60.75
73383;BME280;61600;48.126;11.542;2022-11-20T08:31:31;95182.41;;;8.18;60.57
73383;BME280;61600;48.126;11.542;2022-11-20T08:33:57;95176.75;;;8.58;59.65
73383;BME280;61600;48.126;11.542;2022-11-20T08:36:24;95184.28;;;8.22;60.56
73383;BME280;61600;48.126;11.542;2022-11-20T08:38:52;95181.03;;;8.20;60.79
73383;BME280;61600;48.126;11.542;2022-11-20T08:41:17;95181.28;;;8.24;60.42
73383;BME280;61600;48.126;11.542;2022-11-20T08:44:03;95172.25;;;8.43;60.32
73383;BME280;61600;48.126;11.542;2022-11-20T08:46:34;95180.53;;;8.57;59.62
73383;BME280;61600;48.126;11.542;2022-11-20T08:49:06;95177.38;;;8.45;59.78
73383;BME280;61600;48.126;11.542;2022-11-20T08:51:32;95173.75;;;8.88;58.82
73383;BME280;61600;48.126;11.542;2022-11-20T08:53:58;95164.06;;;9.06;57.84
73383;BME280;61600;48.126;11.542;2022-11-20T08:56:24;95167.88;;;9.05;57.83
73383;BME280;61600;48.126;11.542;2022-11-20T08:58:50;95178.09;;;9.13;57.47
73383;BME280;61600;48.126;11.542;2022-11-20T09:01:17;95173.03;;;9.07;57.58
73383;BME280;61600;48.126;11.542;2022-11-20T09:03:43;95169.00;;;9.28;56.96
73383;BME280;61600;48.126;11.542;2022-11-20T09:06:08;95173.09;;;9.25;57.06
73383;BME280;61600;48.126;11.542;2022-11-20T09:08:34;95168.88;;;9.14;57.13
73383;BME280;61600;48.126;11.542;2022-11-20T09:11:01;95162.88;;;9.17;57.12
73383;BME280;61600;48.126;11.542;2022-11-20T09:13:28;95165.00;;;9.20;57.29
73383;BME280;61600;48.126;11.542;2022-11-20T09:15:55;95161.13;;;9.26;57.00
73383;BME280;61600;48.126;11.542;2022-11-20T09:18:22;95161.00;;;9.13;56.88
73383;BME280;61600;48.126;11.542;2022-11-20T09:20:47;95173.75;;;9.36;56.39
73383;BME280;61600;48.126;11.542;2022-11-20T09:23:14;95163.59;;;9.70;55.65
73383;BME280;61600;48.126;11.542;2022-11-20T09:25:40;95169.09;;;9.41;55.58
73383;BME280;61600;48.126;11.542;2022-11-20T09:28:05;95163.63;;;9.23;56.11
73383;BME280;61600;48.126;11.542;2022-11-20T09:30:31;95160.09;;;9.22;55.81
73383;BME280;61600;48.126;11.542;2022-11-20T09:32:57;95164.53;;;9.13;55.94
73383;BME280;61600;48.126;11.542;2022-11-20T09:35:23;95155.53;;;9.18;55.43
73383;BME280;61600;48.126;11.542;2022-11-20T09:37:49;95156.28;;;9.23;55.71
73383;BME280;61600;48.126;11.542;2022-11-20T09:40:19;95155.66;;;9.08;55.64
73383;BME280;61600;48.126;11.542;2022-11-20T09:45:44;95156.44;;;9.08;55.69
73383;BME280;61600;48.126;11.542;2022-11-20T09:51:46;95152.63;;;9.57;54.39
73383;BME280;61600;48.126;11.542;2022-11-20T09:54:22;95147.63;;;9.21;55.33
73383;BME280;61600;48.126;11.542;2022-11-20T09:56:59;95138.31;;;9.51;54.51
73383;BME280;61600;48.126;11.542;2022-11-20T09:59:50;95141.97;;;9.84;53.41
73383;BME280;61600;48.126;11.542;2022-11-20T10:05:04;95125.75;;;10.16;52.78
73383;BME280;61600;48.126;11.542;2022-11-20T10:10:29;95123.31;;;10.15;52.49
73383;BME280;61600;48.126;11.542;2022-11-20T10:13:14;95126.56;;;10.17;52.67
73383;BME280;61600;48.126;11.542;2022-11-20T10:21:38;95121.03;;;10.40;52.16
73383;BME280;61600;48.126;11.542;2022-11-20T10:24:39;95114.94;;;9.74;54.09
73383;BME280;61600;48.126;11.542;2022-11-20T10:32:37;95133.69;;;10.64;51.55
73383;BME280;61600;48.126;11.542;2022-11-20T10:37:44;95125.06;;;10.43;51.80
73383;BME280;61600;48.126;11.542;2022-11-20T10:42:50;95128.78;;;10.47;51.91
73383;BME280;61600;48.126;11.542;2022-11-20T10:47:45;95124.00;;;10.58;51.21
73383;BME280;61600;48.126;11.542;2022-11-20T10:50:15;95123.75;;;10.40;51.66
73383;BME280;61600;48.126;11.542;2022-11-20T10:55:30;95125.97;;;10.20;52.04
73383;BME280;61600;48.126;11.542;2022-11-20T11:00:38;95126.63;;;10.63;51.47
73383;BME280;61600;48.126;11.542;2022-11-20T11:03:26;95124.38;;;10.14;52.53
73383;BME280;61600;48.126;11.542;2022-11-20T11:06:08;95118.03;;;10.23;52.79
73383;BME280;61600;48.126;11.542;2022-11-20T11:08:39;95132.63;;;10.09;53.07
73383;BME280;61600;48.126;11.542;2022-11-20T11:11:24;95110.63;;;9.91;53.93
73383;BME280;61600;48.126;11.542;2022-11-20T11:13:52;95106.28;;;10.09;53.52
73383;BME280;61600;48.126;11.542;2022-11-20T11:16:26;95105.25;;;10.24;53.09
73383;BME280;61600;48.126;11.542;2022-11-20T11:19:06;95108.69;;;10.11;53.75
73383;BME280;61600;48.126;11.542;2022-11-20T11:21:32;95112.81;;;9.71;53.85
73383;BME280;61600;48.126;11.542;2022-11-20T11:24:03;95111.78;;;10.23;53.38
73383;BME280;61600;48.126;11.542;2022-11-20T11:26:29;95107.50;;;10.35;53.05
73383;BME280;61600;48.126;11.542;2022-11-20T11:29:01;95100.03;;;10.09;53.45
73383;BME280;61600;48.126;11.542;2022-11-20T11:31:32;95107.59;;;10.30;52.91
73383;BME280;61600;48.126;11.542;2022-11-20T11:34:05;95098.75;;;10.38;53.02
73383;BME280;61600;48.126;11.542;2022-11-20T11:36:33;95094.13;;;10.71;52.27
73383;BME280;61600;48.126;11.542;2022-11-20T11:39:00;95095.75;;;10.40;52.98
73383;BME280;61600;48.126;11.542;2022-11-20T11:41:33;95090.56;;;10.06;53.38
73383;BME280;61600;48.126;11.542;2022-11-20T11:44:26;95091.06;;;10.59;52.41
73383;BME280;61600;48.126;11.542;2022-11-20T11:47:23;95102.34;;;10.20;53.14
73383;BME280;61600;48.126;11.542;2022-11-20T11:55:47;95102.44;;;10.10;52.93
73383;BME280;61600;48.126;11.542;2022-11-20T11:58:52;95093.28;;;10.25;52.88
73383;BME280;61600;48.126;11.542;2022-11-20T12:01:28;95093.09;;;10.35;52.55
73383;BME280;61600;48.126;11.542;2022-11-20T12:04:14;95084.44;;;10.33;52.75
73383;BME280;61600;48.126;11.542;2022-11-20T12:06:43;95084.69;;;9.99;53.24
73383;BME280;61600;48.126;11.542;2022-11-20T12:09:10;95098.72;;;9.87;53.91
73383;BME280;61600;48.126;11.542;2022-11-20T12:14:37;95092.84;;;9.19;59.27
73383;BME280;61600;48.126;11.542;2022-11-20T12:17:03;95121.78;;;9.47;58.19
73383;BME280;61600;48.126;11.542;2022-11-20T12:19:31;95103.91;;;9.23;59.28
73383;BME280;61600;48.126;11.542;2022-11-20T12:25:02;95100.75;;;9.58;57.46
73383;BME280;61600;48.126;11.542;2022-11-20T12:30:11;95099.16;;;9.33;59.11
73383;BME280;61600;48.126;11.542;2022-11-20T12:32:51;95089.38;;;9.14;60.49
73383;BME280;61600;48.126;11.542;2022-11-20T12:38:49;95090.59;;;9.02;61.08
73383;BME280;61600;48.126;11.542;2022-11-20T12:47:17;95084.09;;;9.03;60.73
73383;BME280;61600;48.126;11.542;2022-11-20T12:52:48;95104.44;;;9.01;60.65
73383;BME280;61600;48.126;11.542;2022-11-20T12:58:05;95103.88;;;9.04;60.68
73383;BME280;61600;48.126;11.542;2022-11-20T13:00:43;95090.66;;;9.21;60.23
73383;BME280;61600;48.126;11.542;2022-11-20T13:03:29;95099.69;;;9.12;60.78
73383;BME280;61600;48.126;11.542;2022-11-20T13:08:40;95079.69;;;9.08;60.91
73383;BME280;61600;48.126;11.542;2022-11-20T13:11:25;95081.13;;;9.24;60.59
73383;BME280;61600;48.126;11.542;2022-11-20T13:16:59;95088.28;;;8.91;61.81
73383;BME280;61600;48.126;11.542;2022-11-20T13:19:26;95089.19;;;8.81;62.36
73383;BME280;61600;48.126;11.542;2022-11-20T13:21:53;95073.19;;;8.56;63.59
73383;BME280;61600;48.126;11.542;2022-11-20T13:26:45;95078.34;;;8.81;63.28
73383;BME280;61600;48.126;11.542;2022-11-20T13:29:17;95070.78;;;8.55;64.11
73383;BME280;61600;48.126;11.542;2022-11-20T13:31:44;95067.69;;;8.90;63.21
73383;BME280;61600;48.126;11.542;2022-11-20T13:34:24;95069.06;;;8.64;63.64
73383;BME280;61600;48.126;11.542;2022-11-20T13:36:56;95067.38;;;8.44;64.49
73383;BME280;61600;48.126;11.542;2022-11-20T13:41:56;95056.03;;;8.89;63.37
73383;BME280;61600;48.126;11.542;2022-11-20T13:44:39;95054.91;;;8.90;63.03
73383;BME280;61600;48.126;11.542;2022-11-20T13:47:24;95049.22;;;8.92;62.84
73383;BME280;61600;48.126;11.542;2022-11-20T13:49:55;95052.66;;;9.21;62.32
73383;BME280;61600;48.126;11.542;2022-11-20T13:58:18;95056.38;;;9.07;61.77
73383;BME280;61600;48.126;11.542;2022-11-20T14:01:08;95053.34;;;9.08;62.71
73383;BME280;61600;48.126;11.542;2022-11-20T14:03:34;95055.44;;;9.16;61.96
73383;BME280;61600;48.126;11.542;2022-11-20T14:06:03;95052.13;;;9.19;61.92
73383;BME280;61600;48.126;11.542;2022-11-20T14:08:49;95054.75;;;9.06;62.34
73383;BME280;61600;48.126;11.542;2022-11-20T14:11:19;95059.50;;;9.37;61.31
73383;BME280;61600;48.126;11.542;2022-11-20T14:14:04;95056.28;;;8.93;62.00
73383;BME280;61600;48.126;11.542;2022-11-20T14:16:38;95056.38;;;9.07;61.46
73383;BME280;61600;48.126;11.542;2022-11-20T14:21:54;95051.06;;;8.96;61.57
73383;BME280;61600;48.126;11.542;2022-11-20T14:24:22;95053.06;;;9.10;60.70
73383;BME280;61600;48.126;11.542;2022-11-20T14:26:49;95058.91;;;9.22;60.70
73383;BME280;61600;48.126;11.542;2022-11-20T14:29:22;95060.25;;;9.00;61.34
73383;BME280;61600;48.126;11.542;2022-11-20T14:31:52;95067.44;;;9.10;61.02
73383;BME280;61600;48.126;11.542;2022-11-20T14:34:22;95051.69;;;9.12;60.58
73383;BME280;61600;48.126;11.542;2022-11-20T14:36:53;95045.16;;;9.13;60.77
73383;BME280;61600;48.126;11.542;2022-11-20T14:39:22;95044.38;;;9.31;60.13
73383;BME280;61600;48.126;11.542;2022-11-20T14:41:52;95048.47;;;9.10;60.81
73383;BME280;61600;48.126;11.542;2022-11-20T14:44:21;95060.56;;;8.94;61.42